Other Surface Observations
Issued by NWS

Home | Current Version | Previous Version | Text Only | Print | Product List | Glossary On
Versions: 1 2 3 4 5 6 7 8 9 10 11 12 13 14 15 16 17 18 19 20 21 22 23 24 25 26 27 28 29 30 31 32 33 34 35 36 37 38 39 40 41 42 43 44 45 46 47 48 49 50
000
SXAK55 KWBC 270429
OSOAK
:SHEF ENCODED 6-MINUTE NOS MET DATA
:NATIONAL WATER LEVEL OBSERVATION NETWORK (NWLON)
:TA(AIR TEMP DEG F)  SLP(SEA LEVEL PRESSURE INCHES)
:UD(WIND DIRECTION WHOLE DEGREES) US(WIND SPEED MPH)
:TW(WATER TEMP DEG F) UG(WIND GUSTS MPH) WC(CONDUCTIVITY uMHOS/CM)
:XV(VISIBILITY SM)
:-9999 (MISSING VALUES)
:PROVIDED BY DOC/NOAA/NOS/CO-OPS, (301) 713-2540
:corms@noaa.gov
.E KECA2 20221127 Z DH0412/TAIRG/DIN06/   38/   37
.E KECA2 20221127 Z DH0412/PLIRG/DIN06/29.81/29.81
.E KECA2 20221127 Z DH0412/USIRG/DIN06/    2/    4
.E KECA2 20221127 Z DH0412/UDIRG/DIN06/  332/  317
.E KECA2 20221127 Z DH0412/UGIRG/DIN06/    5/    8
.E KECA2 20221127 Z DH0412/TWIRG/DIN06/   46/   46
.A PLXA2 20221127 Z DH0412/TAIRG    33/UGIRG     4/PLIRG 29.81/UDIRG     2/USIRG     3/TWIRG    46/WCIRG -9999
.E ITKA2 20221127 Z DH0412/TAIRG/DIN06/   32/   32
.E ITKA2 20221127 Z DH0412/PLIRG/DIN06/29.83/29.83
.E ITKA2 20221127 Z DH0412/TWIRG/DIN06/   45/   45
.E JNEA2 20221127 Z DH0412/TAIRG/DIN06/   32/   32
.E JNEA2 20221127 Z DH0412/PLIRG/DIN06/29.84/29.84
.E JNEA2 20221127 Z DH0412/USIRG/DIN06/    0/    2
.E JNEA2 20221127 Z DH0412/UDIRG/DIN06/  281/  350
.E JNEA2 20221127 Z DH0412/UGIRG/DIN06/    1/    3
.E JNEA2 20221127 Z DH0412/TWIRG/DIN06/   41/   41
.E SKTA2 20221127 Z DH0406/TAIRG/DIN06/   29/   29
.E SKTA2 20221127 Z DH0406/PLIRG/DIN06/29.93/29.94
.E SKTA2 20221127 Z DH0406/TWIRG/DIN06/   41/   41
.E ELFA2 20221127 Z DH0412/TAIRG/DIN06/   33/   33
.E ELFA2 20221127 Z DH0412/PLIRG/DIN06/29.91/29.91
.E ELFA2 20221127 Z DH0412/TWIRG/DIN06/   45/   45
.E YATA2 20221127 Z DH0412/PLIRG/DIN06/29.92/29.92
.E YATA2 20221127 Z DH0412/TWIRG/DIN06/   46/   46
.E CRVA2 20221127 Z DH0412/TAIRG/DIN06/   34/   36
.E CRVA2 20221127 Z DH0412/PLIRG/DIN06/29.98/29.98
.E CRVA2 20221127 Z DH0412/USIRG/DIN06/    2/    7
.E CRVA2 20221127 Z DH0412/UDIRG/DIN06/  200/  326
.E CRVA2 20221127 Z DH0412/UGIRG/DIN06/    3/   11
.E CRVA2 20221127 Z DH0412/WCIRG/DIN06/30872/30794
.E CRVA2 20221127 Z DH0412/TWIRG/DIN06/   46/   46
.E VDZA2 20221127 Z DH0406/TAIRG/DIN06/   34/   34
.E VDZA2 20221127 Z DH0406/PLIRG/DIN06/30.04/30.04
.E VDZA2 20221127 Z DH0406/USIRG/DIN06/    3/    4
.E VDZA2 20221127 Z DH0406/UDIRG/DIN06/  320/  348
.E VDZA2 20221127 Z DH0406/UGIRG/DIN06/    5/    6
.E VDZA2 20221127 Z DH0406/WCIRG/DIN06/30728/30695
.E VDZA2 20221127 Z DH0406/TWIRG/DIN06/   46/   46
.E SWLA2 20221127 Z DH0406/PLIRG/DIN06/30.18/30.18
.E SWLA2 20221127 Z DH0406/TWIRG/DIN06/   47/   47
.E OVIA2 20221127 Z DH0412/PLIRG/DIN06/30.26/30.26
.E OVIA2 20221127 Z DH0412/TWIRG/DIN06/   43/   43
.A NKTA2 20221127 Z DH0412/TAIRG    16/UGIRG     8/PLIRG 30.27/UDIRG   103/USIRG     7/TWIRG    38/WCIRG -9999
.E ANTA2 20221127 Z DH0412/TAIRP/DIN06/   23/   24
.E ANTA2 20221127 Z DH0412/PLIRP/DIN06/30.28/30.28
.E ANTA2 20221127 Z DH0412/USIRP/DIN06/    2/    3
.E ANTA2 20221127 Z DH0412/UDIRP/DIN06/   52/   45
.E ANTA2 20221127 Z DH0412/UGIRP/DIN06/    4/    7
.E ANTA2 20221127 Z DH0412/TWIRP/DIN06/   31/   31
.A ANTA2 20221127 Z DH0412/TAIRG    23/UGIRG     4/PLIRG 30.28/UDIRG    52/USIRG     2/TWIRG    31/WCIRG -9999
.E KDAA2 20221127 Z DH0406/TAIRG/DIN06/   33/   33
.E KDAA2 20221127 Z DH0406/PLIRG/DIN06/30.33/30.33
.E KDAA2 20221127 Z DH0406/USIRG/DIN06/    8/    5
.E KDAA2 20221127 Z DH0406/UDIRG/DIN06/  215/  325
.E KDAA2 20221127 Z DH0406/UGIRG/DIN06/   15/   18
.E KDAA2 20221127 Z DH0406/TWIRG/DIN06/   39/   39
.E ALIA2 20221127 Z DH0412/TAIRG/DIN06/   29/   29
.E ALIA2 20221127 Z DH0412/PLIRG/DIN06/30.41/30.41
.E ALIA2 20221127 Z DH0412/USIRG/DIN06/   20/   12
.E ALIA2 20221127 Z DH0412/UDIRG/DIN06/  300/  318
.E ALIA2 20221127 Z DH0412/UGIRG/DIN06/   24/   23
.E ALIA2 20221127 Z DH0412/TWIRG/DIN06/   38/   38
.E SNDA2 20221127 Z DH0412/TAIRG/DIN06/   37/   37
.E SNDA2 20221127 Z DH0412/PLIRG/DIN06/30.48/30.50
.E SNDA2 20221127 Z DH0412/USIRG/DIN06/    5/    5
.E SNDA2 20221127 Z DH0412/UDIRG/DIN06/   50/   40
.E SNDA2 20221127 Z DH0412/UGIRG/DIN06/   10/    9
.E SNDA2 20221127 Z DH0412/TWIRG/DIN06/   44/   44
.E KGCA2 20221127 Z DH0412/TAIRG/DIN06/   37/   36
.E KGCA2 20221127 Z DH0412/PLIRG/DIN06/30.49/30.49
.E KGCA2 20221127 Z DH0412/USIRG/DIN06/    7/    9
.E KGCA2 20221127 Z DH0412/UDIRG/DIN06/   45/   33
.E KGCA2 20221127 Z DH0412/UGIRG/DIN06/   11/   16
.E KGCA2 20221127 Z DH0412/TWIRG/DIN06/   44/   44
.A ADKA2 20221127 Z DH0412/TAIRG    49/UGIRG    17/PLIRG 29.52/UDIRG   178/USIRG    12/TWIRG    42/WCIRG -9999
.A ATKA2 20221127 Z DH0412/TAIRG    46/UGIRG    28/PLIRG 29.69/UDIRG   138/USIRG    21/TWIRG    43/WCIRG -9999
.E OLSA2 20221127 Z DH0412/TAIRG/DIN06/   42/   42
.E OLSA2 20221127 Z DH0412/PLIRG/DIN06/30.17/30.16
.E OLSA2 20221127 Z DH0412/USIRG/DIN06/   48/   43
.E OLSA2 20221127 Z DH0412/UDIRG/DIN06/  105/  104
.E OLSA2 20221127 Z DH0412/UGIRG/DIN06/   55/   52
.A UNLA2 20221127 Z DH0412/TAIRG    40/UGIRG    26/PLIRG 30.33/UDIRG   145/USIRG    11/TWIRG    42/WCIRG -9999
.A PMOA2 20221127 Z DH0412/TAIRG -9999/UGIRG -9999/PLIRG 30.48/UDIRG -9999/USIRG -9999/TWIRG    38/WCIRG -9999
.E VCVA2 20221127 Z DH0412/PLIRG/DIN06/30.37/30.36
.E VCVA2 20221127 Z DH0412/TWIRG/DIN06/   38/   38
.E ULRA2 20221127 Z DH0412/PLIRG/DIN06/30.51/30.52
.E NMTA2 20221127 Z DH0406/TAIRG/DIN06/   17/   17
.E NMTA2 20221127 Z DH0406/PLIRG/DIN06/30.57/30.57
.E NMTA2 20221127 Z DH0406/USIRG/DIN06/   15/   14
.E NMTA2 20221127 Z DH0406/UDIRG/DIN06/  303/  309
.E NMTA2 20221127 Z DH0406/UGIRG/DIN06/   16/   16
.E NMTA2 20221127 Z DH0406/TWIRG/DIN06/   30/   30
.A RDDA2 20221127 Z DH0412/TAIRG     2/UGIRG    21/PLIRG 30.40/UDIRG     5/USIRG    17/TWIRG    29/WCIRG -9999
.E PRDA2 20221127 Z DH0406/TAIRG/DIN06/-9999/    0/    0
.E PRDA2 20221127 Z DH0406/PLIRG/DIN06/30.45/30.45/-9999
.E PRDA2 20221127 Z DH0406/USIRG/DIN06/-9999/   17/   17
.E PRDA2 20221127 Z DH0406/UDIRG/DIN06/-9999/   33/   33
.E PRDA2 20221127 Z DH0406/UGIRG/DIN06/-9999/   17/   18
.E PRDA2 20221127 Z DH0406/TWIRG/DIN06/   29/   29/-9999



USA.gov is the U.S. government's official web portal to all federal, state and local government web resources and services.